Time;durP1;ratioP1;P1;durP2;ratioP2;P2;SDS_P1;SDS_P2;PMS_P1;PMS_P2;Temp;Humidity;BMP_temperature;BMP_pressure;BME280_temperature;BME280_humidity;BME280_pressure;Samples;Min_cycle;Max_cycle;Signal;HPM_P1;HPM_P2
2020/12/27 00:01:50;;;;;;;5.43;3.60;;;;;;;;;;4971486;28;20378;-85
2020/12/27 00:04:16;;;;;;;5.70;3.50;;;;;;;;;;4971261;28;20106;-84
2020/12/27 00:06:41;;;;;;;3.93;2.30;;;;;;;;;;4972590;28;20097;-85
2020/12/27 00:09:06;;;;;;;5.43;3.73;;;;;;;;;;4971441;28;20007;-85
2020/12/27 00:11:31;;;;;;;6.00;3.73;;;;;;;;;;4973174;28;20023;-85
2020/12/27 00:13:56;;;;;;;6.70;3.67;;;;;;;;;;4970917;28;20042;-85
2020/12/27 00:16:22;;;;;;;6.77;3.90;;;;;;;;;;4969307;28;20454;-85
2020/12/27 00:18:47;;;;;;;7.80;4.13;;;;;;;;;;4969616;28;20027;-85
2020/12/27 00:21:13;;;;;;;7.23;4.70;;;;;;;;;;4969456;28;20046;-85
2020/12/27 00:23:38;;;;;;;6.23;4.23;;;;;;;;;;4969773;28;20073;-85
2020/12/27 00:26:13;;;;;;;4.23;2.40;;;;;;;;;;4969566;28;20046;-85
2020/12/27 00:28:38;;;;;;;7.27;4.77;;;;;;;;;;4966842;28;20443;-85
2020/12/27 00:31:03;;;;;;;7.23;4.33;;;;;;;;;;4972283;28;20109;-85
2020/12/27 00:33:29;;;;;;;7.13;4.20;;;;;;;;;;4970968;28;20344;-85
2020/12/27 00:35:54;;;;;;;7.47;4.10;;;;;;;;;;4970918;28;20026;-85
2020/12/27 00:38:19;;;;;;;7.83;4.40;;;;;;;;;;4970567;28;20034;-85
2020/12/27 00:40:44;;;;;;;7.43;4.23;;;;;;;;;;4971339;28;20023;-85
2020/12/27 00:43:09;;;;;;;9.97;4.80;;;;;;;;;;4970573;28;20026;-85
2020/12/27 00:45:35;;;;;;;8.60;3.37;;;;;;;;;;4970992;28;20026;-85
2020/12/27 00:48:01;;;;;;;3.00;1.87;;;;;;;;;;4970554;28;20401;-85
2020/12/27 00:50:26;;;;;;;7.60;4.53;;;;;;;;;;4970517;28;20022;-86
2020/12/27 00:52:52;;;;;;;9.17;4.07;;;;;;;;;;4972414;28;20019;-85
2020/12/27 00:55:17;;;;;;;4.73;2.27;;;;;;;;;;4972466;28;20110;-85
2020/12/27 00:57:42;;;;;;;7.63;4.63;;;;;;;;;;4974144;28;20019;-85
2020/12/27 01:00:07;;;;;;;8.33;4.00;;;;;;;;;;4974148;28;20030;-86
2020/12/27 01:02:32;;;;;;;5.67;3.20;;;;;;;;;;4973727;28;20026;-85
2020/12/27 01:04:57;;;;;;;7.97;4.10;;;;;;;;;;4974086;28;20138;-85
2020/12/27 01:07:23;;;;;;;11.33;4.60;;;;;;;;;;4973525;28;20370;-85
2020/12/27 01:09:48;;;;;;;6.47;3.93;;;;;;;;;;4974130;28;20027;-85
2020/12/27 01:12:13;;;;;;;2.10;1.07;;;;;;;;;;4973856;28;20015;-85
2020/12/27 01:14:38;;;;;;;5.63;3.23;;;;;;;;;;4974059;28;20538;-85
2020/12/27 01:17:03;;;;;;;7.40;3.70;;;;;;;;;;4974044;28;20554;-85
2020/12/27 01:19:29;;;;;;;8.37;3.97;;;;;;;;;;4973618;28;20033;-86
2020/12/27 01:21:55;;;;;;;8.23;3.77;;;;;;;;;;4973802;28;20042;-86
2020/12/27 01:24:20;;;;;;;6.07;3.93;;;;;;;;;;4974420;28;20066;-85
2020/12/27 01:26:45;;;;;;;6.73;3.93;;;;;;;;;;4973687;28;20124;-85
2020/12/27 01:29:10;;;;;;;6.87;4.07;;;;;;;;;;4973790;28;20041;-85
2020/12/27 01:31:35;;;;;;;5.70;3.60;;;;;;;;;;4975237;28;20454;-85
2020/12/27 01:34:01;;;;;;;2.07;1.33;;;;;;;;;;4973344;28;20019;-85
2020/12/27 01:36:27;;;;;;;7.87;3.17;;;;;;;;;;4973382;28;20026;-85
2020/12/27 01:38:52;;;;;;;5.93;3.50;;;;;;;;;;4973375;28;20168;-86
2020/12/27 01:41:21;;;;;;;9.07;3.70;;;;;;;;;;4973447;28;20031;-85
2020/12/27 01:43:57;;;;;;;2.20;1.27;;;;;;;;;;4973022;28;20023;-85
2020/12/27 01:46:22;;;;;;;6.20;3.40;;;;;;;;;;4974236;28;20054;-85
2020/12/27 01:48:47;;;;;;;6.67;3.20;;;;;;;;;;4973368;28;20019;-85
2020/12/27 01:51:12;;;;;;;6.40;1.77;;;;;;;;;;4973484;28;20085;-85
2020/12/27 01:53:38;;;;;;;8.83;2.63;;;;;;;;;;4972928;28;20022;-84
2020/12/27 01:56:04;;;;;;;4.47;2.60;;;;;;;;;;4973384;28;20496;-85
2020/12/27 01:58:30;;;;;;;3.47;1.40;;;;;;;;;;4972916;28;20038;-85
2020/12/27 02:00:58;;;;;;;5.70;3.03;;;;;;;;;;4972956;28;20031;-86
2020/12/27 02:03:23;;;;;;;7.03;3.70;;;;;;;;;;4972744;28;20044;-86
2020/12/27 02:05:50;;;;;;;7.60;3.70;;;;;;;;;;4971484;28;20025;-85
2020/12/27 02:08:18;;;;;;;6.53;2.67;;;;;;;;;;4972715;28;20085;-85
2020/12/27 02:10:44;;;;;;;4.33;3.20;;;;;;;;;;4972974;28;20095;-86
2020/12/27 02:13:09;;;;;;;5.23;3.30;;;;;;;;;;4972940;28;20181;-85
2020/12/27 02:15:34;;;;;;;5.13;3.60;;;;;;;;;;4974317;28;20018;-85
2020/12/27 02:18:00;;;;;;;4.97;3.20;;;;;;;;;;4974304;28;20102;-85
2020/12/27 02:20:25;;;;;;;4.63;3.07;;;;;;;;;;4972910;28;20114;-86
2020/12/27 02:22:50;;;;;;;2.23;1.43;;;;;;;;;;4972617;28;20089;-85
2020/12/27 02:25:15;;;;;;;4.37;2.47;;;;;;;;;;4972683;28;20109;-85
2020/12/27 02:27:41;;;;;;;5.23;2.87;;;;;;;;;;4973892;28;20053;-86
2020/12/27 02:30:07;;;;;;;2.53;1.47;;;;;;;;;;4972546;28;20014;-85
2020/12/27 02:32:32;;;;;;;4.27;2.53;;;;;;;;;;4971113;28;20022;-85
2020/12/27 02:34:57;;;;;;;5.10;3.00;;;;;;;;;;4972212;28;20081;-86
2020/12/27 02:37:22;;;;;;;3.30;1.57;;;;;;;;;;4972678;28;20077;-85
2020/12/27 02:39:47;;;;;;;4.77;2.47;;;;;;;;;;4972537;28;20069;-86
2020/12/27 02:42:13;;;;;;;7.40;2.70;;;;;;;;;;4972113;28;20077;-86
2020/12/27 02:47:22;;;;;;;3.50;2.10;;;;;;;;;;4974041;28;20124;-84
2020/12/27 02:49:47;;;;;;;2.93;1.53;;;;;;;;;;4973229;28;20118;-85
2020/12/27 02:52:12;;;;;;;3.50;2.70;;;;;;;;;;4973728;28;20019;-85
2020/12/27 02:54:38;;;;;;;4.07;1.17;;;;;;;;;;4972193;28;20031;-86
2020/12/27 02:57:03;;;;;;;4.40;2.80;;;;;;;;;;4970749;28;20398;-85
2020/12/27 02:59:28;;;;;;;4.47;2.37;;;;;;;;;;4970994;28;20030;-84
2020/12/27 03:01:53;;;;;;;5.90;2.77;;;;;;;;;;4970496;28;20322;-85
2020/12/27 03:04:18;;;;;;;3.90;2.57;;;;;;;;;;4970056;28;20026;-85
2020/12/27 03:06:44;;;;;;;4.03;2.67;;;;;;;;;;4969960;28;20699;-84
2020/12/27 03:09:09;;;;;;;5.07;2.43;;;;;;;;;;4971736;28;20013;-85
2020/12/27 03:11:34;;;;;;;3.03;1.90;;;;;;;;;;4970498;28;20512;-85
2020/12/27 03:13:59;;;;;;;3.60;2.10;;;;;;;;;;4970297;28;20018;-86
2020/12/27 03:16:24;;;;;;;4.00;2.07;;;;;;;;;;4970375;28;20449;-86
2020/12/27 03:18:50;;;;;;;3.73;1.80;;;;;;;;;;4970243;28;20130;-85
2020/12/27 03:21:16;;;;;;;3.33;1.90;;;;;;;;;;4973501;28;20042;-85
2020/12/27 03:23:41;;;;;;;3.17;1.70;;;;;;;;;;4971229;28;20386;-86
2020/12/27 03:26:06;;;;;;;2.90;1.80;;;;;;;;;;4971949;28;20019;-85
2020/12/27 03:28:31;;;;;;;3.87;1.40;;;;;;;;;;4971691;28;20101;-85
2020/12/27 03:30:56;;;;;;;3.70;1.60;;;;;;;;;;4971730;28;20011;-86
2020/12/27 03:33:22;;;;;;;3.47;1.60;;;;;;;;;;4971583;28;20407;-85
2020/12/27 03:35:47;;;;;;;4.77;1.73;;;;;;;;;;4971228;28;20758;-85
2020/12/27 03:38:12;;;;;;;3.53;1.70;;;;;;;;;;4971369;28;20034;-86
2020/12/27 03:40:37;;;;;;;2.10;1.17;;;;;;;;;;4971640;28;20027;-85
2020/12/27 03:43:02;;;;;;;2.80;1.60;;;;;;;;;;4971149;28;20022;-85
2020/12/27 03:45:28;;;;;;;1.47;0.70;;;;;;;;;;4971351;28;20042;-85
2020/12/27 03:47:54;;;;;;;2.07;1.40;;;;;;;;;;4970954;28;20374;-85
2020/12/27 03:50:20;;;;;;;4.50;1.37;;;;;;;;;;4972735;28;20058;-86
2020/12/27 03:52:46;;;;;;;2.53;1.30;;;;;;;;;;4971154;28;20022;-86
2020/12/27 03:55:11;;;;;;;1.57;0.97;;;;;;;;;;4971605;28;20446;-85
2020/12/27 03:57:36;;;;;;;1.93;1.20;;;;;;;;;;4972711;28;20058;-85
2020/12/27 04:00:03;;;;;;;1.53;1.00;;;;;;;;;;4971384;28;20038;-86
2020/12/27 04:02:28;;;;;;;1.97;1.30;;;;;;;;;;4971261;28;20109;-86
2020/12/27 04:04:53;;;;;;;1.57;1.10;;;;;;;;;;4972567;28;20031;-85
2020/12/27 04:07:19;;;;;;;1.40;1.00;;;;;;;;;;4971255;28;20109;-85
2020/12/27 04:09:44;;;;;;;1.23;0.90;;;;;;;;;;4969632;28;20494;-85
2020/12/27 04:12:13;;;;;;;1.93;0.90;;;;;;;;;;4969330;28;20018;-85
2020/12/27 04:14:38;;;;;;;3.13;0.90;;;;;;;;;;4970879;28;20081;-84
2020/12/27 04:17:03;;;;;;;2.13;1.10;;;;;;;;;;4969136;28;20537;-85
2020/12/27 04:19:29;;;;;;;1.40;0.80;;;;;;;;;;4969635;28;20074;-85
2020/12/27 04:21:54;;;;;;;1.00;0.70;;;;;;;;;;4970179;28;20054;-85
2020/12/27 04:24:19;;;;;;;4.10;0.60;;;;;;;;;;4971224;28;20473;-85
2020/12/27 04:26:47;;;;;;;1.00;0.53;;;;;;;;;;4969380;28;20374;-85
2020/12/27 04:29:12;;;;;;;0.40;0.40;;;;;;;;;;4970845;28;20019;-85
2020/12/27 04:31:37;;;;;;;2.10;0.60;;;;;;;;;;4974687;28;20354;-85
2020/12/27 04:34:02;;;;;;;1.27;0.73;;;;;;;;;;4975947;28;20058;-85
2020/12/27 04:36:28;;;;;;;1.10;0.40;;;;;;;;;;4974310;28;20080;-85
2020/12/27 04:38:53;;;;;;;1.47;0.60;;;;;;;;;;4974782;28;20078;-85
2020/12/27 04:41:19;;;;;;;1.07;0.50;;;;;;;;;;4974738;28;20130;-85
2020/12/27 04:43:45;;;;;;;0.60;0.50;;;;;;;;;;4974460;28;20041;-85
2020/12/27 04:46:11;;;;;;;0.70;0.50;;;;;;;;;;4973768;28;20015;-85
2020/12/27 04:48:40;;;;;;;2.93;0.77;;;;;;;;;;4975720;28;20038;-85
2020/12/27 04:51:06;;;;;;;3.30;0.70;;;;;;;;;;4974310;28;20069;-85
2020/12/27 04:53:35;;;;;;;0.90;0.50;;;;;;;;;;4974349;28;20494;-85
2020/12/27 04:56:01;;;;;;;0.97;0.50;;;;;;;;;;4974317;28;20054;-84
2020/12/27 04:58:26;;;;;;;2.07;0.47;;;;;;;;;;4974206;28;20049;-84
2020/12/27 05:00:51;;;;;;;1.90;0.50;;;;;;;;;;4974292;28;20026;-85
2020/12/27 05:03:17;;;;;;;0.37;0.37;;;;;;;;;;4973932;28;20046;-84
2020/12/27 05:05:42;;;;;;;0.57;0.40;;;;;;;;;;4973959;28;20022;-84
2020/12/27 05:08:08;;;;;;;0.87;0.50;;;;;;;;;;4973934;28;20053;-85
2020/12/27 05:10:38;;;;;;;1.17;0.50;;;;;;;;;;4975717;28;20031;-84
2020/12/27 05:13:04;;;;;;;2.30;0.40;;;;;;;;;;4973951;28;20381;-84
2020/12/27 05:15:29;;;;;;;0.60;0.30;;;;;;;;;;4973924;28;20097;-84
2020/12/27 05:17:54;;;;;;;0.70;0.50;;;;;;;;;;4975266;28;20029;-85
2020/12/27 05:20:19;;;;;;;0.70;0.40;;;;;;;;;;4973564;28;20102;-85
2020/12/27 05:22:46;;;;;;;0.30;0.30;;;;;;;;;;4973499;28;20117;-84
2020/12/27 05:25:12;;;;;;;1.07;0.40;;;;;;;;;;4973726;28;20402;-84
2020/12/27 05:27:41;;;;;;;1.63;1.00;;;;;;;;;;4973491;28;20023;-85
2020/12/27 05:30:07;;;;;;;0.43;0.30;;;;;;;;;;4973558;28;20049;-85
2020/12/27 05:32:32;;;;;;;0.10;0.10;;;;;;;;;;4973139;28;20023;-84
2020/12/27 05:34:58;;;;;;;0.30;0.30;;;;;;;;;;4975151;28;20030;-85
2020/12/27 05:37:24;;;;;;;1.30;0.30;;;;;;;;;;4974681;28;20025;-84
2020/12/27 05:39:49;;;;;;;1.10;0.40;;;;;;;;;;4973497;28;20018;-84
2020/12/27 05:42:14;;;;;;;1.07;0.30;;;;;;;;;;4974482;28;20027;-85
2020/12/27 05:44:39;;;;;;;3.20;0.43;;;;;;;;;;4972844;28;20030;-84
2020/12/27 05:47:04;;;;;;;1.37;0.37;;;;;;;;;;4973381;28;20489;-85
2020/12/27 05:49:30;;;;;;;2.50;0.20;;;;;;;;;;4973321;28;20109;-85
2020/12/27 05:51:56;;;;;;;4.57;0.50;;;;;;;;;;4973136;28;20019;-85
2020/12/27 05:54:28;;;;;;;0.10;0.10;;;;;;;;;;4973130;28;20023;-85
2020/12/27 05:56:53;;;;;;;;;;;;;;;;;;4974789;28;20030;-85
2020/12/27 05:59:21;;;;;;;0.77;0.40;;;;;;;;;;4973025;28;19921;-85
2020/12/27 06:01:53;;;;;;;0.80;0.30;;;;;;;;;;4972974;28;20264;-85
2020/12/27 06:04:37;;;;;;;0.50;0.30;;;;;;;;;;4972700;28;20126;-85
2020/12/27 06:07:02;;;;;;;0.67;0.30;;;;;;;;;;4974428;28;20327;-85
2020/12/27 06:09:46;;;;;;;0.10;0.10;;;;;;;;;;4972912;28;20023;-86
2020/12/27 06:12:12;;;;;;;0.90;0.20;;;;;;;;;;4972650;28;20015;-85
2020/12/27 06:14:42;;;;;;;2.67;0.30;;;;;;;;;;4974075;28;20045;-85
2020/12/27 06:17:11;;;;;;;0.57;0.20;;;;;;;;;;4972467;28;20288;-86
2020/12/27 06:19:45;;;;;;;0.57;0.23;;;;;;;;;;4972705;28;20080;-86
2020/12/27 06:22:11;;;;;;;1.43;0.23;;;;;;;;;;4972762;28;20030;-85
2020/12/27 06:24:36;;;;;;;3.60;0.20;;;;;;;;;;4972629;28;20026;-85
2020/12/27 06:27:03;;;;;;;0.40;0.30;;;;;;;;;;4972375;28;20054;-85
2020/12/27 06:29:45;;;;;;;0.20;0.20;;;;;;;;;;4971976;28;20027;-85
2020/12/27 06:32:11;;;;;;;0.30;0.30;;;;;;;;;;4971943;28;20049;-85
2020/12/27 06:34:36;;;;;;;1.23;0.30;;;;;;;;;;4972324;28;20030;-85
2020/12/27 06:37:05;;;;;;;0.37;0.30;;;;;;;;;;4973261;28;20022;-85
2020/12/27 06:39:31;;;;;;;0.10;0.10;;;;;;;;;;4973339;28;20383;-84
2020/12/27 06:42:10;;;;;;;0.67;0.30;;;;;;;;;;4971940;28;20023;-85
2020/12/27 06:44:48;;;;;;;2.13;0.30;;;;;;;;;;4971984;28;20031;-85
2020/12/27 06:47:14;;;;;;;0.97;0.30;;;;;;;;;;4972270;28;20050;-85
2020/12/27 06:49:40;;;;;;;0.53;0.20;;;;;;;;;;4971591;28;20018;-85
2020/12/27 06:52:18;;;;;;;0.40;0.20;;;;;;;;;;4973005;28;20019;-85
2020/12/27 06:54:46;;;;;;;0.30;0.10;;;;;;;;;;4971957;28;20014;-85
2020/12/27 06:57:32;;;;;;;0.20;0.10;;;;;;;;;;4972041;28;20114;-85
2020/12/27 07:00:16;;;;;;;1.87;0.30;;;;;;;;;;4971347;28;20105;-85
2020/12/27 07:02:41;;;;;;;0.67;0.20;;;;;;;;;;4971954;28;20109;-85
2020/12/27 07:05:07;;;;;;;0.90;0.20;;;;;;;;;;4971368;28;20134;-85
2020/12/27 07:07:47;;;;;;;0.10;0.10;;;;;;;;;;4972048;28;20023;-85
2020/12/27 07:10:14;;;;;;;0.10;0.00;;;;;;;;;;4972063;28;20058;-84
2020/12/27 07:12:40;;;;;;;0.70;0.20;;;;;;;;;;4973296;28;20089;-85
2020/12/27 07:15:09;;;;;;;0.60;0.20;;;;;;;;;;4971483;28;20092;-85
2020/12/27 07:17:35;;;;;;;0.80;0.20;;;;;;;;;;4971578;28;20036;-86
2020/12/27 07:20:03;;;;;;;0.10;0.10;;;;;;;;;;4972875;28;20089;-86
2020/12/27 07:22:40;;;;;;;1.13;0.10;;;;;;;;;;4971451;28;20389;-86
2020/12/27 07:25:05;;;;;;;1.90;0.20;;;;;;;;;;4971067;28;20027;-85
2020/12/27 07:27:35;;;;;;;0.87;0.10;;;;;;;;;;4971496;28;20022;-85
2020/12/27 07:30:02;;;;;;;2.80;0.23;;;;;;;;;;4971411;28;20025;-85
2020/12/27 07:32:27;;;;;;;0.50;0.10;;;;;;;;;;4971793;28;20488;-86
2020/12/27 07:34:55;;;;;;;1.07;0.47;;;;;;;;;;4971617;28;20109;-85
2020/12/27 07:37:26;;;;;;;0.87;0.20;;;;;;;;;;4971356;28;20046;-85
2020/12/27 07:39:52;;;;;;;0.57;0.20;;;;;;;;;;4971346;28;20482;-85
2020/12/27 07:42:19;;;;;;;0.70;0.30;;;;;;;;;;4970436;28;20076;-85
2020/12/27 07:44:45;;;;;;;0.10;0.10;;;;;;;;;;4968202;28;20022;-86
2020/12/27 07:47:10;;;;;;;0.33;0.20;;;;;;;;;;4970136;28;20034;-85
2020/12/27 07:49:35;;;;;;;1.17;0.20;;;;;;;;;;4972266;28;20026;-84
2020/12/27 07:52:01;;;;;;;0.20;0.20;;;;;;;;;;4968337;28;20101;-85
2020/12/27 07:54:26;;;;;;;1.70;0.27;;;;;;;;;;4958620;28;20027;-84
2020/12/27 07:56:51;;;;;;;1.23;0.57;;;;;;;;;;4964301;28;20070;-85
2020/12/27 07:59:16;;;;;;;0.43;0.20;;;;;;;;;;4968965;28;20033;-83
2020/12/27 08:01:41;;;;;;;0.10;0.10;;;;;;;;;;4972311;28;20038;-86
2020/12/27 08:04:07;;;;;;;0.30;0.20;;;;;;;;;;4970688;28;20061;-85
2020/12/27 08:06:36;;;;;;;0.40;0.20;;;;;;;;;;4973284;28;20027;-85
2020/12/27 08:09:06;;;;;;;0.97;0.30;;;;;;;;;;4975608;28;20049;-84
2020/12/27 08:11:32;;;;;;;1.60;0.30;;;;;;;;;;4974962;28;20117;-85
2020/12/27 08:13:59;;;;;;;0.27;0.00;;;;;;;;;;4974083;28;20408;-84
2020/12/27 08:16:24;;;;;;;0.10;0.10;;;;;;;;;;4974828;28;20026;-85
2020/12/27 08:19:02;;;;;;;1.00;0.40;;;;;;;;;;4971655;28;20019;-85
2020/12/27 08:21:28;;;;;;;0.20;0.10;;;;;;;;;;4971191;28;20371;-84
2020/12/27 08:24:00;;;;;;;0.40;0.30;;;;;;;;;;4973942;28;20026;-85
2020/12/27 08:26:27;;;;;;;0.75;0.20;;;;;;;;;;4968601;28;20435;-85
2020/12/27 08:28:52;;;;;;;0.43;0.13;;;;;;;;;;4970060;28;20018;-86
2020/12/27 08:31:24;;;;;;;0.20;0.10;;;;;;;;;;4972817;28;20105;-85
2020/12/27 08:33:49;;;;;;;0.00;0.00;;;;;;;;;;4983485;28;20023;-84
2020/12/27 08:36:19;;;;;;;0.03;0.03;;;;;;;;;;4964293;28;20529;-85
2020/12/27 08:38:52;;;;;;;0.67;0.30;;;;;;;;;;4967386;28;20512;-85
2020/12/27 08:41:17;;;;;;;0.65;0.20;;;;;;;;;;4965399;28;20122;-85
2020/12/27 08:43:45;;;;;;;0.30;0.20;;;;;;;;;;4971368;28;20506;-85
2020/12/27 08:46:11;;;;;;;2.60;0.20;;;;;;;;;;4966684;28;20474;-86
2020/12/27 08:48:38;;;;;;;3.50;0.30;;;;;;;;;;4972672;28;20023;-85
2020/12/27 08:51:05;;;;;;;0.20;0.10;;;;;;;;;;4963660;28;20055;-85
2020/12/27 08:53:40;;;;;;;0.93;0.40;;;;;;;;;;4964347;28;20034;-85
2020/12/27 08:56:05;;;;;;;0.57;0.47;;;;;;;;;;4966850;28;20062;-84
2020/12/27 08:58:31;;;;;;;0.57;0.20;;;;;;;;;;4973270;28;20740;-86
2020/12/27 09:00:56;;;;;;;0.43;0.20;;;;;;;;;;4973503;28;20509;-84
2020/12/27 09:03:21;;;;;;;0.43;0.13;;;;;;;;;;4972833;28;20115;-85
2020/12/27 09:05:46;;;;;;;0.67;0.30;;;;;;;;;;4970352;28;20019;-85
2020/12/27 09:08:13;;;;;;;0.47;0.30;;;;;;;;;;4968834;28;20043;-84
2020/12/27 09:10:39;;;;;;;1.07;0.30;;;;;;;;;;4973937;28;20019;-84
2020/12/27 09:13:05;;;;;;;0.60;0.30;;;;;;;;;;4975035;28;20022;-83
2020/12/27 09:15:32;;;;;;;0.30;0.23;;;;;;;;;;4971293;28;20031;-84
2020/12/27 09:18:11;;;;;;;0.10;0.10;;;;;;;;;;4972548;28;20030;-83
2020/12/27 09:20:41;;;;;;;0.67;0.27;;;;;;;;;;4961678;28;20339;-85
2020/12/27 09:23:15;;;;;;;2.10;0.20;;;;;;;;;;4974759;28;20019;-85
2020/12/27 09:25:41;;;;;;;1.80;0.67;;;;;;;;;;4966650;28;20442;-84
2020/12/27 09:28:14;;;;;;;0.30;0.20;;;;;;;;;;4973630;28;20045;-86
2020/12/27 09:30:40;;;;;;;0.30;0.20;;;;;;;;;;4972990;28;20050;-88
2020/12/27 09:33:05;;;;;;;0.97;0.20;;;;;;;;;;4969112;28;20470;-85
2020/12/27 09:35:30;;;;;;;0.20;0.20;;;;;;;;;;4971499;28;20033;-86
2020/12/27 09:37:55;;;;;;;0.30;0.20;;;;;;;;;;4974728;28;20454;-85
2020/12/27 09:40:21;;;;;;;2.97;0.30;;;;;;;;;;4973462;28;20387;-87
2020/12/27 09:42:47;;;;;;;0.33;0.13;;;;;;;;;;4972315;28;20034;-87
2020/12/27 09:45:16;;;;;;;0.27;0.17;;;;;;;;;;4973520;28;20434;-86
2020/12/27 09:47:48;;;;;;;0.40;0.20;;;;;;;;;;4988183;28;20102;-87
2020/12/27 09:50:13;;;;;;;0.10;0.10;;;;;;;;;;4975341;28;20103;-87
2020/12/27 09:52:45;;;;;;;2.23;0.20;;;;;;;;;;4973913;28;20039;-86
2020/12/27 09:55:10;;;;;;;0.43;0.17;;;;;;;;;;4963481;28;20038;-85
2020/12/27 09:57:36;;;;;;;2.10;0.10;;;;;;;;;;4974932;28;20027;-86
2020/12/27 10:00:03;;;;;;;0.30;0.20;;;;;;;;;;4973889;28;20544;-86
2020/12/27 10:02:28;;;;;;;0.37;0.17;;;;;;;;;;4973960;28;20033;-89
2020/12/27 10:04:53;;;;;;;0.20;0.20;;;;;;;;;;4987101;28;20444;-88
2020/12/27 10:07:18;;;;;;;0.60;0.20;;;;;;;;;;4973591;28;20019;-86
2020/12/27 10:09:43;;;;;;;0.40;0.30;;;;;;;;;;4972984;28;20054;-87
2020/12/27 10:12:09;;;;;;;0.20;0.20;;;;;;;;;;4972907;28;20029;-86
2020/12/27 10:14:34;;;;;;;0.10;0.10;;;;;;;;;;4973603;28;20035;-85
2020/12/27 10:17:00;;;;;;;0.33;0.20;;;;;;;;;;4965797;28;20019;-86
2020/12/27 10:19:26;;;;;;;0.17;0.17;;;;;;;;;;4972070;28;20035;-85
2020/12/27 10:21:54;;;;;;;0.37;0.20;;;;;;;;;;4962036;28;20121;-85
2020/12/27 10:24:19;;;;;;;0.40;0.30;;;;;;;;;;4961743;28;20470;-85
2020/12/27 10:26:48;;;;;;;1.50;0.30;;;;;;;;;;4971733;28;20034;-84
2020/12/27 10:29:14;;;;;;;0.30;0.23;;;;;;;;;;4968583;28;20045;-85
2020/12/27 10:31:39;;;;;;;0.23;0.13;;;;;;;;;;4968422;28;20018;-85
2020/12/27 10:34:04;;;;;;;3.90;0.30;;;;;;;;;;4971977;28;20057;-84
2020/12/27 10:36:29;;;;;;;0.47;0.20;;;;;;;;;;4971970;28;20030;-85
2020/12/27 10:38:56;;;;;;;0.40;0.20;;;;;;;;;;4961945;28;20034;-85
2020/12/27 10:41:21;;;;;;;0.97;0.30;;;;;;;;;;4961956;28;20182;-85
2020/12/27 10:43:50;;;;;;;0.47;0.20;;;;;;;;;;4961962;28;20674;-85
2020/12/27 10:46:15;;;;;;;1.30;0.30;;;;;;;;;;4967954;28;20029;-84
2020/12/27 10:48:40;;;;;;;2.23;0.13;;;;;;;;;;4971958;28;20019;-84
2020/12/27 10:51:06;;;;;;;11.43;0.33;;;;;;;;;;4971982;28;20490;-84
2020/12/27 10:53:31;;;;;;;0.20;0.20;;;;;;;;;;4963262;28;20029;-84
2020/12/27 10:55:56;;;;;;;2.33;0.20;;;;;;;;;;4961669;28;20037;-83
2020/12/27 10:58:21;;;;;;;1.07;0.40;;;;;;;;;;4969328;28;20109;-84
2020/12/27 11:00:47;;;;;;;0.67;0.20;;;;;;;;;;4970418;28;20023;-85
2020/12/27 11:03:13;;;;;;;1.33;0.10;;;;;;;;;;4964330;28;20077;-85
2020/12/27 11:05:39;;;;;;;0.30;0.20;;;;;;;;;;4968370;28;20035;-85
2020/12/27 11:08:04;;;;;;;0.33;0.20;;;;;;;;;;4966223;28;20347;-85
2020/12/27 11:10:30;;;;;;;2.07;0.50;;;;;;;;;;4971905;28;20098;-85
2020/12/27 11:12:55;;;;;;;1.00;0.30;;;;;;;;;;4972114;28;20051;-85
2020/12/27 11:15:20;;;;;;;0.50;0.30;;;;;;;;;;4970789;28;20038;-84
2020/12/27 11:17:45;;;;;;;0.00;0.00;;;;;;;;;;4966431;28;20027;-84
2020/12/27 11:20:13;;;;;;;0.43;0.20;;;;;;;;;;4971063;28;20026;-85
2020/12/27 11:22:42;;;;;;;0.50;0.30;;;;;;;;;;4971188;28;20027;-84
2020/12/27 11:25:08;;;;;;;2.47;0.63;;;;;;;;;;4970865;28;20084;-85
2020/12/27 11:27:33;;;;;;;0.27;0.20;;;;;;;;;;4971274;28;20022;-85
2020/12/27 11:29:59;;;;;;;0.17;0.10;;;;;;;;;;4968494;28;20027;-85
2020/12/27 11:32:24;;;;;;;0.53;0.40;;;;;;;;;;4971391;28;20363;-85
2020/12/27 11:34:51;;;;;;;0.27;0.27;;;;;;;;;;4972408;28;20041;-85
2020/12/27 11:37:16;;;;;;;0.63;0.20;;;;;;;;;;4973024;28;20041;-85
2020/12/27 11:39:41;;;;;;;0.30;0.10;;;;;;;;;;4979665;28;20019;-84
2020/12/27 11:42:07;;;;;;;2.60;0.20;;;;;;;;;;4971683;28;20031;-83
2020/12/27 11:44:32;;;;;;;0.30;0.17;;;;;;;;;;4971438;28;20035;-85
2020/12/27 11:46:57;;;;;;;0.80;0.20;;;;;;;;;;4971523;28;20023;-84
2020/12/27 11:49:22;;;;;;;0.30;0.10;;;;;;;;;;4971627;28;20027;-84
2020/12/27 11:51:47;;;;;;;0.30;0.20;;;;;;;;;;4956691;28;20023;-86
2020/12/27 11:54:13;;;;;;;0.27;0.10;;;;;;;;;;4977770;28;20022;-83
2020/12/27 11:56:38;;;;;;;0.57;0.30;;;;;;;;;;4971484;28;20434;-83
2020/12/27 11:59:03;;;;;;;0.60;0.20;;;;;;;;;;4971127;28;20031;-82
2020/12/27 12:01:29;;;;;;;0.10;0.10;;;;;;;;;;4969330;28;20022;-83
2020/12/27 12:03:54;;;;;;;0.47;0.20;;;;;;;;;;4971442;28;20450;-83
2020/12/27 12:06:25;;;;;;;0.00;0.00;;;;;;;;;;4970555;28;20154;-84
2020/12/27 12:08:50;;;;;;;0.20;0.20;;;;;;;;;;4971341;28;20354;-84
2020/12/27 12:11:15;;;;;;;1.53;0.10;;;;;;;;;;4971075;28;20018;-83
2020/12/27 12:13:41;;;;;;;0.33;0.20;;;;;;;;;;4970436;28;20023;-82
2020/12/27 12:16:06;;;;;;;0.10;0.07;;;;;;;;;;4962546;28;20033;-82
2020/12/27 12:18:31;;;;;;;0.20;0.20;;;;;;;;;;4967438;28;20030;-83
2020/12/27 12:20:56;;;;;;;0.23;0.10;;;;;;;;;;4970067;28;20336;-83
2020/12/27 12:23:21;;;;;;;0.77;0.30;;;;;;;;;;4970891;28;20081;-82
2020/12/27 12:25:47;;;;;;;1.60;0.20;;;;;;;;;;4970881;28;20593;-83
2020/12/27 12:28:12;;;;;;;1.20;0.33;;;;;;;;;;4970752;28;20522;-83
2020/12/27 12:30:41;;;;;;;0.50;0.20;;;;;;;;;;4971010;28;20030;-84
2020/12/27 12:33:07;;;;;;;0.63;0.20;;;;;;;;;;4969595;28;20031;-82
2020/12/27 12:35:32;;;;;;;0.30;0.10;;;;;;;;;;4972479;28;20465;-83
2020/12/27 12:37:58;;;;;;;0.23;0.10;;;;;;;;;;4968012;28;20084;-83
2020/12/27 12:40:23;;;;;;;2.10;0.30;;;;;;;;;;4958600;28;20034;-83
2020/12/27 12:42:48;;;;;;;0.93;0.10;;;;;;;;;;4968505;28;20110;-83
2020/12/27 12:45:13;;;;;;;1.00;0.20;;;;;;;;;;4970497;28;20031;-83
2020/12/27 12:47:39;;;;;;;0.50;0.30;;;;;;;;;;4963555;28;20038;-84
2020/12/27 12:50:04;;;;;;;1.33;0.20;;;;;;;;;;4967903;28;20110;-82
2020/12/27 12:52:30;;;;;;;0.40;0.10;;;;;;;;;;4969244;28;20024;-82
2020/12/27 12:54:55;;;;;;;3.17;0.43;;;;;;;;;;4973331;28;20101;-83
2020/12/27 12:57:20;;;;;;;0.23;0.10;;;;;;;;;;4970848;28;20027;-83
2020/12/27 12:59:45;;;;;;;0.30;0.20;;;;;;;;;;4969669;28;20031;-83
2020/12/27 13:02:10;;;;;;;0.00;0.00;;;;;;;;;;4974522;28;20050;-83
2020/12/27 13:04:36;;;;;;;0.10;0.10;;;;;;;;;;4972952;28;20097;-83
2020/12/27 13:07:01;;;;;;;0.57;0.20;;;;;;;;;;4973826;28;20308;-83
2020/12/27 13:09:26;;;;;;;0.67;0.30;;;;;;;;;;4973878;28;20053;-82
2020/12/27 13:11:51;;;;;;;0.20;0.10;;;;;;;;;;4973599;28;20022;-83
2020/12/27 13:14:16;;;;;;;0.20;0.10;;;;;;;;;;4973754;28;20019;-83
2020/12/27 13:16:45;;;;;;;2.40;0.30;;;;;;;;;;4973090;28;20019;-83
2020/12/27 13:19:10;;;;;;;0.47;0.10;;;;;;;;;;4973696;28;20018;-83
2020/12/27 13:21:35;;;;;;;0.40;0.30;;;;;;;;;;4973649;28;20539;-83
2020/12/27 13:24:00;;;;;;;0.50;0.20;;;;;;;;;;4973334;28;20046;-84
2020/12/27 13:26:26;;;;;;;0.67;0.23;;;;;;;;;;4973159;28;20102;-83
2020/12/27 13:28:51;;;;;;;0.60;0.20;;;;;;;;;;4973471;28;20493;-83
2020/12/27 13:31:16;;;;;;;2.90;0.20;;;;;;;;;;4973451;28;20022;-83
2020/12/27 13:33:41;;;;;;;0.40;0.20;;;;;;;;;;4973496;28;20025;-83
2020/12/27 13:36:07;;;;;;;0.43;0.30;;;;;;;;;;4964964;28;20034;-83
2020/12/27 13:38:32;;;;;;;1.30;0.70;;;;;;;;;;4972957;28;20018;-83
2020/12/27 13:40:57;;;;;;;2.60;0.60;;;;;;;;;;4973154;28;20018;-85
2020/12/27 13:43:22;;;;;;;0.57;0.37;;;;;;;;;;4973798;28;20034;-87
2020/12/27 13:45:47;;;;;;;0.70;0.40;;;;;;;;;;4973346;28;20023;-86
2020/12/27 13:48:13;;;;;;;0.67;0.20;;;;;;;;;;4973661;28;20120;-85
2020/12/27 13:50:38;;;;;;;0.47;0.20;;;;;;;;;;4973225;28;20114;-84
2020/12/27 13:53:03;;;;;;;0.10;0.10;;;;;;;;;;4973369;28;20019;-85
2020/12/27 13:55:28;;;;;;;0.57;0.30;;;;;;;;;;4974381;28;20038;-85
2020/12/27 13:57:53;;;;;;;0.30;0.20;;;;;;;;;;4972715;28;20050;-86
2020/12/27 14:00:19;;;;;;;3.30;0.20;;;;;;;;;;4965755;28;20074;-85
2020/12/27 14:02:44;;;;;;;0.67;0.30;;;;;;;;;;4973164;28;20091;-87
2020/12/27 14:05:09;;;;;;;0.40;0.30;;;;;;;;;;4966321;28;20102;-87
2020/12/27 14:07:34;;;;;;;0.37;0.30;;;;;;;;;;4971630;28;20023;-86
2020/12/27 14:09:59;;;;;;;0.47;0.30;;;;;;;;;;4973095;28;20331;-87
2020/12/27 14:12:24;;;;;;;0.60;0.30;;;;;;;;;;4973697;28;20015;-87
2020/12/27 14:14:50;;;;;;;0.93;0.30;;;;;;;;;;4973644;28;20022;-87
2020/12/27 14:17:15;;;;;;;0.50;0.30;;;;;;;;;;4972645;28;20117;-84
2020/12/27 14:19:41;;;;;;;1.10;0.40;;;;;;;;;;4973533;28;20035;-86
2020/12/27 14:22:06;;;;;;;0.87;0.40;;;;;;;;;;4959660;28;20026;-85
2020/12/27 14:24:31;;;;;;;2.43;0.33;;;;;;;;;;4961180;28;20463;-85
2020/12/27 14:26:56;;;;;;;0.70;0.27;;;;;;;;;;4965931;28;20023;-85
2020/12/27 14:29:22;;;;;;;1.70;0.33;;;;;;;;;;4962101;28;20046;-85
2020/12/27 14:31:47;;;;;;;0.90;0.30;;;;;;;;;;4972180;28;20023;-84
2020/12/27 14:34:12;;;;;;;0.20;0.20;;;;;;;;;;4973150;28;20355;-84
2020/12/27 14:36:37;;;;;;;0.40;0.20;;;;;;;;;;4959335;28;20034;-85
2020/12/27 14:39:02;;;;;;;0.57;0.40;;;;;;;;;;4969956;28;20038;-84
2020/12/27 14:41:28;;;;;;;1.03;0.30;;;;;;;;;;4970638;28;20426;-85